sensor_id;sensor_type;location;lat;lon;timestamp;temperature;humidity
9403;DHT22;4741;49.834;10.740;2023-03-19T00:01:33;6.60;99.90
9403;DHT22;4741;49.834;10.740;2023-03-19T00:04:00;6.70;99.90
9403;DHT22;4741;49.834;10.740;2023-03-19T00:06:27;6.80;99.90
9403;DHT22;4741;49.834;10.740;2023-03-19T00:08:53;6.70;99.90
9403;DHT22;4741;49.834;10.740;2023-03-19T00:13:47;6.30;99.90
9403;DHT22;4741;49.834;10.740;2023-03-19T00:16:14;6.30;99.90
9403;DHT22;4741;49.834;10.740;2023-03-19T00:18:40;6.50;99.90
9403;DHT22;4741;49.834;10.740;2023-03-19T00:21:07;6.50;99.90
9403;DHT22;4741;49.834;10.740;2023-03-19T00:23:34;6.50;99.90
9403;DHT22;4741;49.834;10.740;2023-03-19T00:26:02;6.50;99.90
9403;DHT22;4741;49.834;10.740;2023-03-19T00:28:29;6.50;99.90
9403;DHT22;4741;49.834;10.740;2023-03-19T00:30:56;6.50;99.90
9403;DHT22;4741;49.834;10.740;2023-03-19T00:33:23;6.50;99.90
9403;DHT22;4741;49.834;10.740;2023-03-19T00:35:50;6.30;99.90
9403;DHT22;4741;49.834;10.740;2023-03-19T00:38:17;6.00;99.90
9403;DHT22;4741;49.834;10.740;2023-03-19T00:40:44;6.00;99.90
9403;DHT22;4741;49.834;10.740;2023-03-19T00:43:10;6.00;99.90
9403;DHT22;4741;49.834;10.740;2023-03-19T00:45:37;5.90;99.90
9403;DHT22;4741;49.834;10.740;2023-03-19T00:48:04;5.80;99.90
9403;DHT22;4741;49.834;10.740;2023-03-19T00:50:30;5.80;99.90
9403;DHT22;4741;49.834;10.740;2023-03-19T00:52:57;5.90;99.90
9403;DHT22;4741;49.834;10.740;2023-03-19T00:55:24;6.10;99.90
9403;DHT22;4741;49.834;10.740;2023-03-19T00:57:52;6.00;99.90
9403;DHT22;4741;49.834;10.740;2023-03-19T01:00:19;5.80;99.90
9403;DHT22;4741;49.834;10.740;2023-03-19T01:02:45;5.70;99.90
9403;DHT22;4741;49.834;10.740;2023-03-19T01:05:12;5.60;99.90
9403;DHT22;4741;49.834;10.740;2023-03-19T01:07:39;5.50;99.90
9403;DHT22;4741;49.834;10.740;2023-03-19T01:10:06;6.90;99.90
9403;DHT22;4741;49.834;10.740;2023-03-19T01:12:33;5.60;99.90
9403;DHT22;4741;49.834;10.740;2023-03-19T01:14:59;5.50;99.90
9403;DHT22;4741;49.834;10.740;2023-03-19T01:17:26;5.70;99.90
9403;DHT22;4741;49.834;10.740;2023-03-19T01:19:53;5.30;99.90
9403;DHT22;4741;49.834;10.740;2023-03-19T01:22:20;5.60;99.90
9403;DHT22;4741;49.834;10.740;2023-03-19T01:24:47;5.40;99.90
9403;DHT22;4741;49.834;10.740;2023-03-19T01:27:14;5.30;99.90
9403;DHT22;4741;49.834;10.740;2023-03-19T01:29:40;4.90;99.90
9403;DHT22;4741;49.834;10.740;2023-03-19T01:32:07;5.90;99.90
9403;DHT22;4741;49.834;10.740;2023-03-19T01:34:33;5.00;99.90
9403;DHT22;4741;49.834;10.740;2023-03-19T01:37:00;5.60;99.90
9403;DHT22;4741;49.834;10.740;2023-03-19T01:39:27;4.90;99.90
9403;DHT22;4741;49.834;10.740;2023-03-19T01:41:54;4.50;99.90
9403;DHT22;4741;49.834;10.740;2023-03-19T01:44:22;5.50;99.90
9403;DHT22;4741;49.834;10.740;2023-03-19T01:46:48;5.00;99.90
9403;DHT22;4741;49.834;10.740;2023-03-19T01:49:15;5.00;99.90
9403;DHT22;4741;49.834;10.740;2023-03-19T01:51:44;5.20;99.90
9403;DHT22;4741;49.834;10.740;2023-03-19T01:54:14;5.30;99.90
9403;DHT22;4741;49.834;10.740;2023-03-19T01:56:42;5.20;99.90
9403;DHT22;4741;49.834;10.740;2023-03-19T01:59:10;5.20;99.90
9403;DHT22;4741;49.834;10.740;2023-03-19T02:01:40;5.10;99.90
9403;DHT22;4741;49.834;10.740;2023-03-19T02:04:08;5.10;99.90
9403;DHT22;4741;49.834;10.740;2023-03-19T02:06:35;4.80;99.90
9403;DHT22;4741;49.834;10.740;2023-03-19T02:09:03;4.80;99.90
9403;DHT22;4741;49.834;10.740;2023-03-19T02:11:29;5.20;99.90
9403;DHT22;4741;49.834;10.740;2023-03-19T02:13:56;5.40;99.90
9403;DHT22;4741;49.834;10.740;2023-03-19T02:16:23;5.10;99.90
9403;DHT22;4741;49.834;10.740;2023-03-19T02:18:50;4.50;99.90
9403;DHT22;4741;49.834;10.740;2023-03-19T02:21:17;4.80;99.90
9403;DHT22;4741;49.834;10.740;2023-03-19T02:23:46;4.70;99.90
9403;DHT22;4741;49.834;10.740;2023-03-19T02:26:16;6.00;99.90
9403;DHT22;4741;49.834;10.740;2023-03-19T02:28:44;6.40;99.90
9403;DHT22;4741;49.834;10.740;2023-03-19T02:31:11;4.20;99.90
9403;DHT22;4741;49.834;10.740;2023-03-19T02:33:38;4.10;99.90
9403;DHT22;4741;49.834;10.740;2023-03-19T02:36:06;4.50;99.90
9403;DHT22;4741;49.834;10.740;2023-03-19T02:38:34;5.00;99.90
9403;DHT22;4741;49.834;10.740;2023-03-19T02:41:03;4.80;99.90
9403;DHT22;4741;49.834;10.740;2023-03-19T02:43:31;4.90;99.90
9403;DHT22;4741;49.834;10.740;2023-03-19T02:45:59;5.20;99.90
9403;DHT22;4741;49.834;10.740;2023-03-19T02:48:25;4.70;99.90
9403;DHT22;4741;49.834;10.740;2023-03-19T02:50:52;4.50;99.90
9403;DHT22;4741;49.834;10.740;2023-03-19T02:53:19;4.60;99.90
9403;DHT22;4741;49.834;10.740;2023-03-19T02:55:45;4.60;99.90
9403;DHT22;4741;49.834;10.740;2023-03-19T03:00:42;4.80;99.90
9403;DHT22;4741;49.834;10.740;2023-03-19T03:03:09;4.80;99.90
9403;DHT22;4741;49.834;10.740;2023-03-19T03:05:36;4.70;99.90
9403;DHT22;4741;49.834;10.740;2023-03-19T03:08:03;4.90;99.90
9403;DHT22;4741;49.834;10.740;2023-03-19T03:10:30;4.90;99.90
9403;DHT22;4741;49.834;10.740;2023-03-19T03:12:58;5.60;99.90
9403;DHT22;4741;49.834;10.740;2023-03-19T03:15:24;4.80;99.90
9403;DHT22;4741;49.834;10.740;2023-03-19T03:17:51;4.00;99.90
9403;DHT22;4741;49.834;10.740;2023-03-19T03:20:18;4.50;99.90
9403;DHT22;4741;49.834;10.740;2023-03-19T03:22:46;4.50;99.90
9403;DHT22;4741;49.834;10.740;2023-03-19T03:25:13;4.40;99.90
9403;DHT22;4741;49.834;10.740;2023-03-19T03:27:40;4.60;99.90
9403;DHT22;4741;49.834;10.740;2023-03-19T03:30:07;4.60;99.90
9403;DHT22;4741;49.834;10.740;2023-03-19T03:32:35;4.70;99.90
9403;DHT22;4741;49.834;10.740;2023-03-19T03:35:02;4.70;99.90
9403;DHT22;4741;49.834;10.740;2023-03-19T03:37:29;4.70;99.90
9403;DHT22;4741;49.834;10.740;2023-03-19T03:39:56;4.60;99.90
9403;DHT22;4741;49.834;10.740;2023-03-19T03:42:23;4.30;99.90
9403;DHT22;4741;49.834;10.740;2023-03-19T03:44:50;4.30;99.90
9403;DHT22;4741;49.834;10.740;2023-03-19T03:47:16;4.50;99.90
9403;DHT22;4741;49.834;10.740;2023-03-19T03:49:43;4.50;99.90
9403;DHT22;4741;49.834;10.740;2023-03-19T03:52:10;4.50;99.90
9403;DHT22;4741;49.834;10.740;2023-03-19T03:54:36;4.70;99.90
9403;DHT22;4741;49.834;10.740;2023-03-19T03:57:03;4.60;99.90
9403;DHT22;4741;49.834;10.740;2023-03-19T03:59:30;4.60;99.90
9403;DHT22;4741;49.834;10.740;2023-03-19T04:01:56;4.50;99.90
9403;DHT22;4741;49.834;10.740;2023-03-19T04:04:23;4.60;99.90
9403;DHT22;4741;49.834;10.740;2023-03-19T04:06:50;4.50;99.90
9403;DHT22;4741;49.834;10.740;2023-03-19T04:09:16;4.60;99.90
9403;DHT22;4741;49.834;10.740;2023-03-19T04:11:43;4.60;99.90
9403;DHT22;4741;49.834;10.740;2023-03-19T04:14:10;4.50;99.90
9403;DHT22;4741;49.834;10.740;2023-03-19T04:16:36;4.40;99.90
9403;DHT22;4741;49.834;10.740;2023-03-19T04:19:03;4.60;99.90
9403;DHT22;4741;49.834;10.740;2023-03-19T04:21:30;4.60;99.90
9403;DHT22;4741;49.834;10.740;2023-03-19T04:23:56;4.70;99.90
9403;DHT22;4741;49.834;10.740;2023-03-19T04:26:23;4.60;99.90
9403;DHT22;4741;49.834;10.740;2023-03-19T04:28:50;4.40;99.90
9403;DHT22;4741;49.834;10.740;2023-03-19T04:31:17;4.30;99.90
9403;DHT22;4741;49.834;10.740;2023-03-19T04:33:43;4.60;99.90
9403;DHT22;4741;49.834;10.740;2023-03-19T04:36:10;4.60;99.90
9403;DHT22;4741;49.834;10.740;2023-03-19T04:38:37;4.60;99.90
9403;DHT22;4741;49.834;10.740;2023-03-19T04:41:04;4.20;99.90
9403;DHT22;4741;49.834;10.740;2023-03-19T04:43:30;4.30;99.90
9403;DHT22;4741;49.834;10.740;2023-03-19T04:45:57;3.90;99.90
9403;DHT22;4741;49.834;10.740;2023-03-19T04:48:24;3.80;99.90
9403;DHT22;4741;49.834;10.740;2023-03-19T04:53:22;4.00;99.90
9403;DHT22;4741;49.834;10.740;2023-03-19T04:55:50;4.00;99.90
9403;DHT22;4741;49.834;10.740;2023-03-19T04:58:17;3.90;99.90
9403;DHT22;4741;49.834;10.740;2023-03-19T05:00:44;3.90;99.90
9403;DHT22;4741;49.834;10.740;2023-03-19T05:03:13;4.80;99.90
9403;DHT22;4741;49.834;10.740;2023-03-19T05:05:40;4.50;99.90
9403;DHT22;4741;49.834;10.740;2023-03-19T05:08:07;4.40;99.90
9403;DHT22;4741;49.834;10.740;2023-03-19T05:10:35;4.50;99.90
9403;DHT22;4741;49.834;10.740;2023-03-19T05:13:02;4.20;99.90
9403;DHT22;4741;49.834;10.740;2023-03-19T05:15:29;4.20;99.90
9403;DHT22;4741;49.834;10.740;2023-03-19T05:17:55;4.30;99.90
9403;DHT22;4741;49.834;10.740;2023-03-19T05:20:22;4.20;99.90
9403;DHT22;4741;49.834;10.740;2023-03-19T05:22:49;4.60;99.90
9403;DHT22;4741;49.834;10.740;2023-03-19T05:25:17;4.70;99.90
9403;DHT22;4741;49.834;10.740;2023-03-19T05:27:44;4.50;99.90
9403;DHT22;4741;49.834;10.740;2023-03-19T05:30:11;4.60;99.90
9403;DHT22;4741;49.834;10.740;2023-03-19T05:32:38;4.80;99.90
9403;DHT22;4741;49.834;10.740;2023-03-19T05:35:06;4.10;99.90
9403;DHT22;4741;49.834;10.740;2023-03-19T05:37:33;4.80;99.90
9403;DHT22;4741;49.834;10.740;2023-03-19T05:39:59;4.50;99.90
9403;DHT22;4741;49.834;10.740;2023-03-19T05:42:26;4.40;99.90
9403;DHT22;4741;49.834;10.740;2023-03-19T05:44:52;4.40;99.90
9403;DHT22;4741;49.834;10.740;2023-03-19T05:47:19;4.30;99.90
9403;DHT22;4741;49.834;10.740;2023-03-19T05:49:46;4.60;99.90
9403;DHT22;4741;49.834;10.740;2023-03-19T05:52:13;4.20;99.90
9403;DHT22;4741;49.834;10.740;2023-03-19T05:54:40;4.00;99.90
9403;DHT22;4741;49.834;10.740;2023-03-19T05:57:06;4.30;99.90
9403;DHT22;4741;49.834;10.740;2023-03-19T05:59:33;5.80;99.90
9403;DHT22;4741;49.834;10.740;2023-03-19T06:02:00;4.60;99.90
9403;DHT22;4741;49.834;10.740;2023-03-19T06:04:27;4.80;99.90
9403;DHT22;4741;49.834;10.740;2023-03-19T06:06:53;4.80;99.90
9403;DHT22;4741;49.834;10.740;2023-03-19T06:09:20;4.70;99.90
9403;DHT22;4741;49.834;10.740;2023-03-19T06:11:46;4.90;99.90
9403;DHT22;4741;49.834;10.740;2023-03-19T06:14:13;6.30;99.90
9403;DHT22;4741;49.834;10.740;2023-03-19T06:16:40;5.10;99.90
9403;DHT22;4741;49.834;10.740;2023-03-19T06:19:06;5.10;99.90
9403;DHT22;4741;49.834;10.740;2023-03-19T06:21:33;4.90;99.90
9403;DHT22;4741;49.834;10.740;2023-03-19T06:24:00;5.90;99.90
9403;DHT22;4741;49.834;10.740;2023-03-19T06:26:26;4.90;99.90
9403;DHT22;4741;49.834;10.740;2023-03-19T06:28:53;5.10;99.90
9403;DHT22;4741;49.834;10.740;2023-03-19T06:31:20;4.90;99.90
9403;DHT22;4741;49.834;10.740;2023-03-19T06:33:46;5.00;99.90
9403;DHT22;4741;49.834;10.740;2023-03-19T06:36:14;5.00;99.90
9403;DHT22;4741;49.834;10.740;2023-03-19T06:38:41;5.20;99.90
9403;DHT22;4741;49.834;10.740;2023-03-19T06:41:07;5.20;99.90
9403;DHT22;4741;49.834;10.740;2023-03-19T06:46:03;5.80;99.90
9403;DHT22;4741;49.834;10.740;2023-03-19T06:55:51;6.00;99.90
9403;DHT22;4741;49.834;10.740;2023-03-19T06:58:18;5.70;99.90
9403;DHT22;4741;49.834;10.740;2023-03-19T07:00:44;5.70;99.90
9403;DHT22;4741;49.834;10.740;2023-03-19T07:03:11;5.80;99.90
9403;DHT22;4741;49.834;10.740;2023-03-19T07:05:38;6.30;99.90
9403;DHT22;4741;49.834;10.740;2023-03-19T07:08:05;5.70;99.90
9403;DHT22;4741;49.834;10.740;2023-03-19T07:10:37;5.20;99.90
9403;DHT22;4741;49.834;10.740;2023-03-19T07:13:04;6.00;99.90
9403;DHT22;4741;49.834;10.740;2023-03-19T07:15:31;5.40;99.90
9403;DHT22;4741;49.834;10.740;2023-03-19T07:17:58;8.00;99.90
9403;DHT22;4741;49.834;10.740;2023-03-19T07:20:24;7.10;99.90
9403;DHT22;4741;49.834;10.740;2023-03-19T07:22:51;5.70;99.90
9403;DHT22;4741;49.834;10.740;2023-03-19T07:25:18;8.10;99.90
9403;DHT22;4741;49.834;10.740;2023-03-19T07:27:44;6.20;99.90
9403;DHT22;4741;49.834;10.740;2023-03-19T07:30:11;6.10;99.90
9403;DHT22;4741;49.834;10.740;2023-03-19T07:32:38;6.60;99.90
9403;DHT22;4741;49.834;10.740;2023-03-19T07:35:05;5.60;99.90
9403;DHT22;4741;49.834;10.740;2023-03-19T07:37:32;6.50;99.90
9403;DHT22;4741;49.834;10.740;2023-03-19T07:39:59;6.00;99.90
9403;DHT22;4741;49.834;10.740;2023-03-19T07:42:31;5.70;99.90
9403;DHT22;4741;49.834;10.740;2023-03-19T07:44:58;6.10;99.90
9403;DHT22;4741;49.834;10.740;2023-03-19T07:47:24;5.80;99.90
9403;DHT22;4741;49.834;10.740;2023-03-19T07:49:55;5.50;99.90
9403;DHT22;4741;49.834;10.740;2023-03-19T07:52:22;5.60;99.90
9403;DHT22;4741;49.834;10.740;2023-03-19T07:54:49;8.50;99.90
9403;DHT22;4741;49.834;10.740;2023-03-19T07:57:16;5.90;99.90
9403;DHT22;4741;49.834;10.740;2023-03-19T07:59:43;8.20;99.90
9403;DHT22;4741;49.834;10.740;2023-03-19T08:02:10;8.60;99.90
9403;DHT22;4741;49.834;10.740;2023-03-19T08:04:37;6.70;99.90
9403;DHT22;4741;49.834;10.740;2023-03-19T08:07:04;6.80;99.90
9403;DHT22;4741;49.834;10.740;2023-03-19T08:09:31;7.90;99.90
9403;DHT22;4741;49.834;10.740;2023-03-19T08:11:58;5.80;99.90
9403;DHT22;4741;49.834;10.740;2023-03-19T08:14:25;7.80;99.90
9403;DHT22;4741;49.834;10.740;2023-03-19T08:16:51;6.90;99.90
9403;DHT22;4741;49.834;10.740;2023-03-19T08:19:18;6.60;99.90
9403;DHT22;4741;49.834;10.740;2023-03-19T08:21:45;7.00;99.90
9403;DHT22;4741;49.834;10.740;2023-03-19T08:24:12;6.60;99.90
9403;DHT22;4741;49.834;10.740;2023-03-19T08:26:38;6.40;99.90
9403;DHT22;4741;49.834;10.740;2023-03-19T08:29:05;6.20;99.90
9403;DHT22;4741;49.834;10.740;2023-03-19T08:31:32;8.70;99.90
9403;DHT22;4741;49.834;10.740;2023-03-19T08:33:59;6.20;99.90
9403;DHT22;4741;49.834;10.740;2023-03-19T08:36:28;8.70;99.90
9403;DHT22;4741;49.834;10.740;2023-03-19T08:38:54;9.20;99.90
9403;DHT22;4741;49.834;10.740;2023-03-19T08:41:21;6.70;99.90
9403;DHT22;4741;49.834;10.740;2023-03-19T08:43:48;6.20;99.90
9403;DHT22;4741;49.834;10.740;2023-03-19T08:46:15;6.50;99.90
9403;DHT22;4741;49.834;10.740;2023-03-19T08:48:42;9.10;99.90
9403;DHT22;4741;49.834;10.740;2023-03-19T08:51:09;6.90;99.90
9403;DHT22;4741;49.834;10.740;2023-03-19T08:53:36;7.00;99.90
9403;DHT22;4741;49.834;10.740;2023-03-19T08:56:03;7.20;99.90
9403;DHT22;4741;49.834;10.740;2023-03-19T08:58:31;7.70;99.90
9403;DHT22;4741;49.834;10.740;2023-03-19T09:01:05;7.40;99.90
9403;DHT22;4741;49.834;10.740;2023-03-19T09:03:32;7.80;99.90
9403;DHT22;4741;49.834;10.740;2023-03-19T09:05:59;7.70;99.90
9403;DHT22;4741;49.834;10.740;2023-03-19T09:08:26;7.60;99.90
9403;DHT22;4741;49.834;10.740;2023-03-19T09:10:54;7.40;99.90
9403;DHT22;4741;49.834;10.740;2023-03-19T09:13:21;7.80;99.90
9403;DHT22;4741;49.834;10.740;2023-03-19T09:15:47;7.80;99.90
9403;DHT22;4741;49.834;10.740;2023-03-19T09:18:14;8.00;99.90
9403;DHT22;4741;49.834;10.740;2023-03-19T09:20:41;8.20;99.90
9403;DHT22;4741;49.834;10.740;2023-03-19T09:23:08;8.00;99.90
9403;DHT22;4741;49.834;10.740;2023-03-19T09:25:35;7.70;99.90
9403;DHT22;4741;49.834;10.740;2023-03-19T09:28:01;9.60;99.90
9403;DHT22;4741;49.834;10.740;2023-03-19T09:30:28;8.10;99.90
9403;DHT22;4741;49.834;10.740;2023-03-19T09:32:55;8.20;99.90
9403;DHT22;4741;49.834;10.740;2023-03-19T09:35:22;10.00;99.90
9403;DHT22;4741;49.834;10.740;2023-03-19T09:37:48;8.70;99.90
9403;DHT22;4741;49.834;10.740;2023-03-19T09:40:24;8.30;99.90
9403;DHT22;4741;49.834;10.740;2023-03-19T09:42:54;9.00;99.90
9403;DHT22;4741;49.834;10.740;2023-03-19T09:45:24;9.00;99.90
9403;DHT22;4741;49.834;10.740;2023-03-19T09:47:56;9.20;99.90
9403;DHT22;4741;49.834;10.740;2023-03-19T09:50:24;9.90;99.90
9403;DHT22;4741;49.834;10.740;2023-03-19T09:55:48;9.40;99.90
9403;DHT22;4741;49.834;10.740;2023-03-19T09:58:39;9.50;99.90
9403;DHT22;4741;49.834;10.740;2023-03-19T10:01:10;9.50;99.90
9403;DHT22;4741;49.834;10.740;2023-03-19T10:03:45;9.50;99.90
9403;DHT22;4741;49.834;10.740;2023-03-19T10:06:24;9.70;99.90
9403;DHT22;4741;49.834;10.740;2023-03-19T10:16:53;10.10;99.90
9403;DHT22;4741;49.834;10.740;2023-03-19T10:19:23;10.20;99.90
9403;DHT22;4741;49.834;10.740;2023-03-19T10:21:54;10.20;99.90
9403;DHT22;4741;49.834;10.740;2023-03-19T10:24:38;10.40;99.90
9403;DHT22;4741;49.834;10.740;2023-03-19T10:27:13;10.40;99.90
9403;DHT22;4741;49.834;10.740;2023-03-19T10:29:40;10.50;99.90
9403;DHT22;4741;49.834;10.740;2023-03-19T10:32:13;10.50;99.90
9403;DHT22;4741;49.834;10.740;2023-03-19T10:34:43;10.60;99.90
9403;DHT22;4741;49.834;10.740;2023-03-19T10:37:13;10.70;99.90
9403;DHT22;4741;49.834;10.740;2023-03-19T10:39:41;10.80;99.90
9403;DHT22;4741;49.834;10.740;2023-03-19T10:45:18;11.00;99.90
9403;DHT22;4741;49.834;10.740;2023-03-19T10:47:45;11.20;99.90
9403;DHT22;4741;49.834;10.740;2023-03-19T10:50:16;10.50;99.90
9403;DHT22;4741;49.834;10.740;2023-03-19T10:52:49;11.50;99.90
9403;DHT22;4741;49.834;10.740;2023-03-19T10:55:18;11.70;99.90
9403;DHT22;4741;49.834;10.740;2023-03-19T10:58:00;12.00;99.90
9403;DHT22;4741;49.834;10.740;2023-03-19T11:00:28;13.30;99.90
9403;DHT22;4741;49.834;10.740;2023-03-19T11:02:58;11.10;99.90
9403;DHT22;4741;49.834;10.740;2023-03-19T11:05:27;12.80;99.90
9403;DHT22;4741;49.834;10.740;2023-03-19T11:07:58;12.20;99.90
9403;DHT22;4741;49.834;10.740;2023-03-19T11:10:28;13.60;99.90
9403;DHT22;4741;49.834;10.740;2023-03-19T11:12:56;13.40;99.90
9403;DHT22;4741;49.834;10.740;2023-03-19T11:15:27;14.50;99.90
9403;DHT22;4741;49.834;10.740;2023-03-19T11:22:50;14.00;99.90
9403;DHT22;4741;49.834;10.740;2023-03-19T11:25:23;13.90;99.90
9403;DHT22;4741;49.834;10.740;2023-03-19T11:30:39;13.80;99.90
9403;DHT22;4741;49.834;10.740;2023-03-19T11:33:12;14.30;99.90
9403;DHT22;4741;49.834;10.740;2023-03-19T11:43:48;15.20;99.90
9403;DHT22;4741;49.834;10.740;2023-03-19T11:51:45;15.40;99.90
9403;DHT22;4741;49.834;10.740;2023-03-19T12:04:58;18.00;99.90
9403;DHT22;4741;49.834;10.740;2023-03-19T12:07:36;17.90;99.90
9403;DHT22;4741;49.834;10.740;2023-03-19T12:18:22;16.50;99.90
9403;DHT22;4741;49.834;10.740;2023-03-19T12:24:25;17.60;99.90
9403;DHT22;4741;49.834;10.740;2023-03-19T12:28:55;17.70;99.90
9403;DHT22;4741;49.834;10.740;2023-03-19T12:31:27;17.70;99.90
9403;DHT22;4741;49.834;10.740;2023-03-19T12:34:11;17.80;99.90
9403;DHT22;4741;49.834;10.740;2023-03-19T12:36:53;18.90;99.90
9403;DHT22;4741;49.834;10.740;2023-03-19T12:39:24;18.10;99.90
9403;DHT22;4741;49.834;10.740;2023-03-19T12:41:52;18.80;99.90
9403;DHT22;4741;49.834;10.740;2023-03-19T12:44:28;18.40;99.90
9403;DHT22;4741;49.834;10.740;2023-03-19T12:49:35;19.50;99.90
9403;DHT22;4741;49.834;10.740;2023-03-19T12:52:14;18.30;99.90
9403;DHT22;4741;49.834;10.740;2023-03-19T12:54:44;18.20;99.90
9403;DHT22;4741;49.834;10.740;2023-03-19T12:59:47;18.00;99.90
9403;DHT22;4741;49.834;10.740;2023-03-19T13:12:31;18.20;99.90
9403;DHT22;4741;49.834;10.740;2023-03-19T13:19:58;19.30;99.90
9403;DHT22;4741;49.834;10.740;2023-03-19T13:22:27;19.20;99.90
9403;DHT22;4741;49.834;10.740;2023-03-19T13:24:56;19.50;99.90
9403;DHT22;4741;49.834;10.740;2023-03-19T13:27:30;20.70;99.90
9403;DHT22;4741;49.834;10.740;2023-03-19T13:29:59;19.70;99.90
9403;DHT22;4741;49.834;10.740;2023-03-19T13:35:25;17.30;99.90
9403;DHT22;4741;49.834;10.740;2023-03-19T13:38:42;18.20;99.90
9403;DHT22;4741;49.834;10.740;2023-03-19T13:40:49;18.70;99.90
9403;DHT22;4741;49.834;10.740;2023-03-19T13:50:55;15.80;99.90
9403;DHT22;4741;49.834;10.740;2023-03-19T14:06:47;17.40;99.90
9403;DHT22;4741;49.834;10.740;2023-03-19T14:14:23;16.00;99.90
9403;DHT22;4741;49.834;10.740;2023-03-19T14:16:50;16.10;99.90
9403;DHT22;4741;49.834;10.740;2023-03-19T14:19:20;16.30;99.90
9403;DHT22;4741;49.834;10.740;2023-03-19T14:27:20;17.00;99.90
9403;DHT22;4741;49.834;10.740;2023-03-19T14:29:48;18.10;99.90
9403;DHT22;4741;49.834;10.740;2023-03-19T14:32:15;18.10;99.90
9403;DHT22;4741;49.834;10.740;2023-03-19T14:34:45;17.30;99.90
9403;DHT22;4741;49.834;10.740;2023-03-19T14:39:41;17.00;99.90
9403;DHT22;4741;49.834;10.740;2023-03-19T14:55:31;15.50;99.90
9403;DHT22;4741;49.834;10.740;2023-03-19T14:57:59;15.50;99.90
9403;DHT22;4741;49.834;10.740;2023-03-19T15:00:26;15.30;99.90
9403;DHT22;4741;49.834;10.740;2023-03-19T15:02:53;15.20;99.90
9403;DHT22;4741;49.834;10.740;2023-03-19T15:07:48;14.90;99.90
9403;DHT22;4741;49.834;10.740;2023-03-19T15:13:28;14.90;99.90
9403;DHT22;4741;49.834;10.740;2023-03-19T15:18:08;14.70;99.90
9403;DHT22;4741;49.834;10.740;2023-03-19T15:20:41;14.60;99.90
9403;DHT22;4741;49.834;10.740;2023-03-19T15:23:09;14.60;99.90
9403;DHT22;4741;49.834;10.740;2023-03-19T15:25:52;14.50;99.90
9403;DHT22;4741;49.834;10.740;2023-03-19T15:28:23;14.50;99.90
9403;DHT22;4741;49.834;10.740;2023-03-19T15:30:55;14.40;99.90
9403;DHT22;4741;49.834;10.740;2023-03-19T15:33:34;14.40;99.90
9403;DHT22;4741;49.834;10.740;2023-03-19T15:36:27;14.50;99.90
9403;DHT22;4741;49.834;10.740;2023-03-19T15:38:59;14.50;99.90
9403;DHT22;4741;49.834;10.740;2023-03-19T15:41:28;14.60;99.90
9403;DHT22;4741;49.834;10.740;2023-03-19T15:43:56;14.50;99.90
9403;DHT22;4741;49.834;10.740;2023-03-19T15:46:24;14.60;99.90
9403;DHT22;4741;49.834;10.740;2023-03-19T15:48:57;14.80;99.90
9403;DHT22;4741;49.834;10.740;2023-03-19T15:51:24;15.10;99.90
9403;DHT22;4741;49.834;10.740;2023-03-19T15:53:51;15.80;99.90
9403;DHT22;4741;49.834;10.740;2023-03-19T15:56:18;15.80;99.90
9403;DHT22;4741;49.834;10.740;2023-03-19T15:58:46;15.90;99.90
9403;DHT22;4741;49.834;10.740;2023-03-19T16:01:14;16.00;99.90
9403;DHT22;4741;49.834;10.740;2023-03-19T16:03:42;16.80;99.90
9403;DHT22;4741;49.834;10.740;2023-03-19T16:08:47;15.90;99.90
9403;DHT22;4741;49.834;10.740;2023-03-19T16:11:32;15.60;99.90
9403;DHT22;4741;49.834;10.740;2023-03-19T16:16:28;15.00;99.90
9403;DHT22;4741;49.834;10.740;2023-03-19T16:18:56;14.70;99.90
9403;DHT22;4741;49.834;10.740;2023-03-19T16:21:26;14.70;99.90
9403;DHT22;4741;49.834;10.740;2023-03-19T16:23:58;14.60;99.90
9403;DHT22;4741;49.834;10.740;2023-03-19T16:26:29;14.50;99.90
9403;DHT22;4741;49.834;10.740;2023-03-19T16:31:43;14.60;99.90
9403;DHT22;4741;49.834;10.740;2023-03-19T16:36:53;14.30;99.90
9403;DHT22;4741;49.834;10.740;2023-03-19T16:39:34;14.10;99.90
9403;DHT22;4741;49.834;10.740;2023-03-19T16:44:37;13.80;99.90
9403;DHT22;4741;49.834;10.740;2023-03-19T16:49:31;13.60;99.90
9403;DHT22;4741;49.834;10.740;2023-03-19T16:51:58;13.50;99.90
9403;DHT22;4741;49.834;10.740;2023-03-19T16:56:52;13.30;99.90
9403;DHT22;4741;49.834;10.740;2023-03-19T16:59:19;14.60;99.90
9403;DHT22;4741;49.834;10.740;2023-03-19T17:11:38;12.60;99.90
9403;DHT22;4741;49.834;10.740;2023-03-19T17:14:06;11.20;99.90
9403;DHT22;4741;49.834;10.740;2023-03-19T17:16:38;13.20;99.90
9403;DHT22;4741;49.834;10.740;2023-03-19T17:19:16;13.70;99.90
9403;DHT22;4741;49.834;10.740;2023-03-19T17:21:44;12.20;99.90
9403;DHT22;4741;49.834;10.740;2023-03-19T20:16:10;8.80;99.90
9403;DHT22;4741;49.834;10.740;2023-03-19T20:18:37;7.90;99.90
9403;DHT22;4741;49.834;10.740;2023-03-19T20:21:09;8.00;99.90
9403;DHT22;4741;49.834;10.740;2023-03-19T20:23:38;7.30;99.90
9403;DHT22;4741;49.834;10.740;2023-03-19T20:26:05;7.60;99.90
9403;DHT22;4741;49.834;10.740;2023-03-19T20:28:33;7.80;99.90
9403;DHT22;4741;49.834;10.740;2023-03-19T20:31:01;8.00;99.90
9403;DHT22;4741;49.834;10.740;2023-03-19T20:33:29;8.20;99.90
9403;DHT22;4741;49.834;10.740;2023-03-19T20:35:57;8.00;99.90
9403;DHT22;4741;49.834;10.740;2023-03-19T20:38:23;7.50;99.90
9403;DHT22;4741;49.834;10.740;2023-03-19T20:40:53;8.30;99.90
9403;DHT22;4741;49.834;10.740;2023-03-19T20:43:33;8.20;99.90
9403;DHT22;4741;49.834;10.740;2023-03-19T20:46:01;8.20;99.90
9403;DHT22;4741;49.834;10.740;2023-03-19T20:48:30;8.00;99.90
9403;DHT22;4741;49.834;10.740;2023-03-19T20:50:57;8.00;99.90
9403;DHT22;4741;49.834;10.740;2023-03-19T20:53:25;7.70;99.90
9403;DHT22;4741;49.834;10.740;2023-03-19T20:55:51;7.80;99.90
9403;DHT22;4741;49.834;10.740;2023-03-19T20:58:31;7.60;99.90
9403;DHT22;4741;49.834;10.740;2023-03-19T21:01:00;8.30;99.90
9403;DHT22;4741;49.834;10.740;2023-03-19T21:03:29;7.50;99.90
9403;DHT22;4741;49.834;10.740;2023-03-19T21:05:57;7.80;99.90
9403;DHT22;4741;49.834;10.740;2023-03-19T21:11:00;8.20;99.90
9403;DHT22;4741;49.834;10.740;2023-03-19T21:13:27;7.70;99.90
9403;DHT22;4741;49.834;10.740;2023-03-19T21:15:54;9.20;99.90
9403;DHT22;4741;49.834;10.740;2023-03-19T21:18:21;6.80;99.90
9403;DHT22;4741;49.834;10.740;2023-03-19T21:20:49;7.40;99.90
9403;DHT22;4741;49.834;10.740;2023-03-19T21:23:34;8.20;99.90
9403;DHT22;4741;49.834;10.740;2023-03-19T21:26:05;8.30;99.90
9403;DHT22;4741;49.834;10.740;2023-03-19T21:28:36;9.30;99.90
9403;DHT22;4741;49.834;10.740;2023-03-19T21:31:04;8.20;99.90
9403;DHT22;4741;49.834;10.740;2023-03-19T21:33:31;8.10;99.90
9403;DHT22;4741;49.834;10.740;2023-03-19T21:35:59;7.20;99.90
9403;DHT22;4741;49.834;10.740;2023-03-19T21:38:26;7.80;99.90
9403;DHT22;4741;49.834;10.740;2023-03-19T21:40:54;7.80;99.90
9403;DHT22;4741;49.834;10.740;2023-03-19T21:43:23;7.10;99.90
9403;DHT22;4741;49.834;10.740;2023-03-19T21:50:46;7.90;99.90
9403;DHT22;4741;49.834;10.740;2023-03-19T21:53:15;7.70;99.90
9403;DHT22;4741;49.834;10.740;2023-03-19T21:55:42;7.40;99.90
9403;DHT22;4741;49.834;10.740;2023-03-19T21:58:12;7.50;99.90
9403;DHT22;4741;49.834;10.740;2023-03-19T22:00:40;7.80;99.90
9403;DHT22;4741;49.834;10.740;2023-03-19T22:03:17;7.40;99.90
9403;DHT22;4741;49.834;10.740;2023-03-19T22:08:11;7.70;99.90
9403;DHT22;4741;49.834;10.740;2023-03-19T22:10:41;7.80;99.90